Time;durP1;ratioP1;P1;durP2;ratioP2;P2;SDS_P1;SDS_P2;PMS_P1;PMS_P2;Temp;Humidity;BMP_temperature;BMP_pressure;BME280_temperature;BME280_humidity;BME280_pressure;Samples;Min_cycle;Max_cycle;Signal;HPM_P1;HPM_P2
2022/07/31 00:00:09;;;;;;;10.18;2.70;;;19.20;99.90;;;;;;4997893;28;20095;-58
2022/07/31 00:02:35;;;;;;;7.47;2.50;;;19.20;99.90;;;;;;4995111;28;20022;-57
2022/07/31 00:05:01;;;;;;;6.82;3.08;;;19.20;99.90;;;;;;4998690;28;20030;-58
2022/07/31 00:07:27;;;;;;;11.32;3.25;;;19.20;99.90;;;;;;4988813;28;20078;-58
2022/07/31 00:09:54;;;;;;;8.45;2.70;;;19.20;99.90;;;;;;4990556;28;20038;-58
2022/07/31 00:12:20;;;;;;;7.18;3.38;;;19.10;99.90;;;;;;4996897;28;20106;-58
2022/07/31 00:14:47;;;;;;;7.40;3.03;;;19.20;99.90;;;;;;4991997;28;20042;-58
2022/07/31 00:17:13;;;;;;;10.77;3.10;;;19.20;99.90;;;;;;4992944;28;20497;-57
2022/07/31 00:19:38;;;;;;;13.25;3.00;;;19.20;99.90;;;;;;4993357;28;20035;-57
2022/07/31 00:22:04;;;;;;;8.40;2.97;;;19.20;99.90;;;;;;5003854;28;20044;-58
2022/07/31 00:24:30;;;;;;;11.65;2.60;;;19.20;99.90;;;;;;4992749;28;20509;-57
2022/07/31 00:26:56;;;;;;;7.85;2.50;;;19.30;99.90;;;;;;4990963;28;20034;-57
2022/07/31 00:29:21;;;;;;;9.38;2.78;;;19.30;99.90;;;;;;5001605;28;20038;-57
2022/07/31 00:31:47;;;;;;;9.88;2.85;;;19.30;99.90;;;;;;4990449;28;20029;-57
2022/07/31 00:34:13;;;;;;;10.50;3.00;;;19.20;99.90;;;;;;4997903;28;20033;-57
2022/07/31 00:36:38;;;;;;;7.65;2.47;;;19.20;99.90;;;;;;4999072;28;20048;-59
2022/07/31 00:39:04;;;;;;;8.52;3.05;;;19.20;99.90;;;;;;4996477;28;20121;-58
2022/07/31 00:41:42;;;;;;;7.00;2.75;;;19.20;99.90;;;;;;4995545;28;20038;-57
2022/07/31 00:44:08;;;;;;;5.90;2.50;;;19.20;99.90;;;;;;4989862;28;20061;-57
2022/07/31 00:46:34;;;;;;;8.70;3.35;;;19.20;99.90;;;;;;4991104;28;20029;-57
2022/07/31 00:49:00;;;;;;;11.00;3.00;;;19.10;99.90;;;;;;4994985;28;20027;-57
2022/07/31 00:51:26;;;;;;;11.55;2.78;;;19.10;99.90;;;;;;4990823;28;20081;-58
2022/07/31 00:53:52;;;;;;;9.65;3.58;;;19.20;99.90;;;;;;4994197;28;20411;-57
2022/07/31 00:56:18;;;;;;;10.20;4.18;;;19.10;99.90;;;;;;4993310;28;20033;-58
2022/07/31 00:58:44;;;;;;;10.45;3.15;;;19.10;99.90;;;;;;4988561;28;20174;-58
2022/07/31 01:01:10;;;;;;;7.32;3.22;;;19.10;99.90;;;;;;4995307;28;20096;-58
2022/07/31 01:03:35;;;;;;;6.85;2.90;;;19.10;99.90;;;;;;4997475;28;20422;-58
2022/07/31 01:06:02;;;;;;;10.88;4.55;;;19.10;99.90;;;;;;4999854;28;20031;-58
2022/07/31 01:08:28;;;;;;;9.52;3.28;;;19.00;99.90;;;;;;4989477;28;20042;-58
2022/07/31 01:11:02;;;;;;;10.82;3.08;;;19.00;99.90;;;;;;4991853;28;20241;-57
2022/07/31 01:13:49;;;;;;;8.43;3.53;;;19.00;99.90;;;;;;4990057;28;20030;-58
2022/07/31 01:16:17;;;;;;;10.57;2.97;;;19.00;99.90;;;;;;4991567;28;20065;-59
2022/07/31 01:18:45;;;;;;;8.98;3.22;;;18.90;99.90;;;;;;4990783;28;20038;-58
2022/07/31 01:21:18;;;;;;;8.63;3.17;;;18.90;99.90;;;;;;4989816;28;20038;-57
2022/07/31 01:23:49;;;;;;;7.20;3.17;;;18.90;99.90;;;;;;4993513;28;20117;-58
2022/07/31 01:26:36;;;;;;;9.70;3.10;;;18.90;99.90;;;;;;4989734;28;20034;-58
2022/07/31 01:29:04;;;;;;;4.55;2.35;;;18.90;99.90;;;;;;4984168;28;20057;-58
2022/07/31 01:31:38;;;;;;;7.28;3.08;;;18.80;99.90;;;;;;4989578;28;20030;-58
2022/07/31 01:34:21;;;;;;;9.40;2.95;;;18.70;99.90;;;;;;4994831;28;20030;-58
2022/07/31 01:36:52;;;;;;;11.45;4.18;;;18.70;99.90;;;;;;4995841;28;20022;-58
2022/07/31 01:39:18;;;;;;;11.32;3.58;;;18.70;99.90;;;;;;4993272;28;20039;-58
2022/07/31 01:41:47;;;;;;;7.40;3.65;;;18.60;99.90;;;;;;4995239;28;20486;-58
2022/07/31 01:44:16;;;;;;;5.72;3.53;;;18.50;99.90;;;;;;4992842;28;20077;-57
2022/07/31 01:46:45;;;;;;;11.55;3.63;;;18.50;99.90;;;;;;4998513;28;20029;-57
2022/07/31 01:49:13;;;;;;;10.45;3.22;;;18.50;99.90;;;;;;4994948;28;20487;-58
2022/07/31 01:51:40;;;;;;;10.90;3.63;;;18.40;99.90;;;;;;4999439;28;20485;-58
2022/07/31 01:54:07;;;;;;;10.48;4.00;;;18.50;99.90;;;;;;4992689;28;20030;-58
2022/07/31 01:56:35;;;;;;;11.45;4.47;;;18.50;99.90;;;;;;4991995;28;20025;-58
2022/07/31 01:59:03;;;;;;;12.00;3.63;;;18.50;99.90;;;;;;4991797;28;20030;-57
2022/07/31 02:01:30;;;;;;;12.55;4.40;;;18.50;99.90;;;;;;4993799;28;20023;-57
2022/07/31 02:03:57;;;;;;;16.35;5.60;;;18.60;99.90;;;;;;4991735;28;20382;-57
2022/07/31 02:06:24;;;;;;;11.95;4.20;;;18.60;99.90;;;;;;4992847;28;20023;-58
2022/07/31 02:08:52;;;;;;;10.20;4.45;;;18.60;99.90;;;;;;4993366;28;20366;-57
2022/07/31 02:11:19;;;;;;;9.77;4.07;;;18.60;99.90;;;;;;4990350;28;20026;-57
2022/07/31 02:13:48;;;;;;;12.40;4.65;;;18.60;99.90;;;;;;4992958;28;20105;-57
2022/07/31 02:16:16;;;;;;;9.95;4.03;;;18.60;99.90;;;;;;4994880;28;20487;-58
2022/07/31 02:18:42;;;;;;;14.10;4.18;;;18.50;99.90;;;;;;4994765;28;20030;-58
2022/07/31 02:21:09;;;;;;;9.75;5.30;;;18.50;99.90;;;;;;4990129;28;20435;-58
2022/07/31 02:23:34;;;;;;;16.80;5.75;;;18.50;99.90;;;;;;5007354;28;20449;-58
2022/07/31 02:26:02;;;;;;;11.50;5.05;;;18.50;99.90;;;;;;4992119;28;20515;-57
2022/07/31 02:28:30;;;;;;;9.88;4.63;;;18.50;99.90;;;;;;4993992;28;20023;-58
2022/07/31 02:30:57;;;;;;;12.45;4.18;;;18.60;99.90;;;;;;4994696;28;20030;-58
2022/07/31 02:33:25;;;;;;;12.75;4.40;;;18.70;99.90;;;;;;5000071;28;20359;-58
2022/07/31 02:35:54;;;;;;;13.98;3.47;;;18.70;99.90;;;;;;4992811;28;20434;-58
2022/07/31 02:38:22;;;;;;;8.07;3.65;;;18.80;99.90;;;;;;4989940;28;20097;-59
2022/07/31 02:40:50;;;;;;;10.77;4.57;;;18.90;99.90;;;;;;4994104;28;20073;-58
2022/07/31 02:43:18;;;;;;;9.77;3.80;;;19.00;99.90;;;;;;4991004;28;20041;-58
2022/07/31 02:45:44;;;;;;;12.75;4.03;;;19.00;99.90;;;;;;4991502;28;20034;-59
2022/07/31 02:48:11;;;;;;;12.10;3.30;;;19.00;99.90;;;;;;4988555;28;20105;-58
2022/07/31 02:50:38;;;;;;;7.10;3.65;;;19.00;99.90;;;;;;4991903;28;20037;-59
2022/07/31 02:53:03;;;;;;;8.32;3.22;;;19.00;99.90;;;;;;4989713;28;20150;-57
2022/07/31 02:55:30;;;;;;;10.35;3.47;;;19.00;99.90;;;;;;4987941;28;20117;-57
2022/07/31 02:57:55;;;;;;;9.68;3.60;;;19.00;99.90;;;;;;4997044;28;20022;-57
2022/07/31 03:00:22;;;;;;;8.25;3.78;;;19.10;99.90;;;;;;4995096;28;20609;-57
2022/07/31 03:02:50;;;;;;;9.52;3.03;;;19.20;99.90;;;;;;4992686;28;20041;-57
2022/07/31 03:05:16;;;;;;;7.00;3.35;;;19.20;99.90;;;;;;4989626;28;20026;-57
2022/07/31 03:07:43;;;;;;;8.32;3.20;;;19.20;99.90;;;;;;5003846;28;20025;-57
2022/07/31 03:10:09;;;;;;;11.35;3.30;;;19.30;99.90;;;;;;4992053;28;20056;-57
2022/07/31 03:12:38;;;;;;;12.32;3.85;;;19.30;99.90;;;;;;4994800;28;20018;-57
2022/07/31 03:15:10;;;;;;;7.85;3.35;;;19.30;99.90;;;;;;4995178;28;20050;-57
2022/07/31 03:17:40;;;;;;;8.63;3.72;;;19.30;99.90;;;;;;4987048;28;20471;-57
2022/07/31 03:20:07;;;;;;;7.57;3.45;;;19.30;99.90;;;;;;5002125;28;20057;-57
2022/07/31 03:22:34;;;;;;;12.18;3.95;;;19.30;99.90;;;;;;4996200;28;20022;-58
2022/07/31 03:25:01;;;;;;;6.97;3.05;;;19.30;99.90;;;;;;4993682;28;20161;-58
2022/07/31 03:27:27;;;;;;;8.57;3.35;;;19.30;99.90;;;;;;4994505;28;20486;-58
2022/07/31 03:29:53;;;;;;;12.80;3.95;;;19.30;99.90;;;;;;4991497;28;20037;-58
2022/07/31 03:32:19;;;;;;;10.85;3.30;;;19.30;99.90;;;;;;5006162;28;20026;-58
2022/07/31 03:34:45;;;;;;;10.40;3.40;;;19.20;99.90;;;;;;4992040;28;20169;-57
2022/07/31 03:37:12;;;;;;;11.65;3.88;;;19.20;99.90;;;;;;4994772;28;20109;-54
2022/07/31 03:39:38;;;;;;;12.50;3.30;;;19.20;99.90;;;;;;4995742;28;20104;-57
2022/07/31 03:42:03;;;;;;;9.55;3.20;;;19.10;99.90;;;;;;4991574;28;20957;-56
2022/07/31 03:44:32;;;;;;;8.07;2.92;;;19.00;99.90;;;;;;4991811;28;20050;-58
2022/07/31 03:46:58;;;;;;;9.65;3.35;;;19.10;99.90;;;;;;5001016;28;20014;-58
2022/07/31 03:49:25;;;;;;;10.10;3.50;;;19.10;99.90;;;;;;4997223;28;20034;-56
2022/07/31 03:51:51;;;;;;;6.05;2.70;;;19.20;99.90;;;;;;5001123;28;20113;-60
2022/07/31 03:54:18;;;;;;;8.73;2.72;;;19.20;99.90;;;;;;4991733;28;20022;-56
2022/07/31 03:56:47;;;;;;;12.32;3.05;;;19.20;99.90;;;;;;4991486;28;20030;-57
2022/07/31 03:59:14;;;;;;;10.13;2.92;;;19.20;99.90;;;;;;4992786;28;20037;-57
2022/07/31 04:01:41;;;;;;;9.40;2.63;;;19.20;99.90;;;;;;4994784;28;20029;-57
2022/07/31 04:04:06;;;;;;;7.72;2.35;;;19.10;99.90;;;;;;4990321;28;20534;-57
2022/07/31 04:06:32;;;;;;;9.25;2.60;;;19.10;99.90;;;;;;4990346;28;20109;-57
2022/07/31 04:09:00;;;;;;;7.38;2.53;;;19.10;99.90;;;;;;4993380;28;20122;-57
2022/07/31 04:11:26;;;;;;;6.47;2.60;;;19.00;99.90;;;;;;4993602;28;20482;-58
2022/07/31 04:13:52;;;;;;;8.43;2.88;;;19.00;99.90;;;;;;4992351;28;20025;-57
2022/07/31 04:16:18;;;;;;;7.15;2.50;;;19.00;99.90;;;;;;4998004;28;20437;-59
2022/07/31 04:18:44;;;;;;;5.72;2.13;;;19.10;99.90;;;;;;4994555;28;20033;-58
2022/07/31 04:21:10;;;;;;;4.47;1.92;;;19.00;99.90;;;;;;4994795;28;20027;-57
2022/07/31 04:23:35;;;;;;;6.25;2.10;;;19.00;99.90;;;;;;4993174;28;20069;-57
2022/07/31 04:26:01;;;;;;;6.55;2.45;;;19.00;99.90;;;;;;4996672;28;20018;-57
2022/07/31 04:28:27;;;;;;;9.48;2.40;;;19.00;99.90;;;;;;4994280;28;20033;-57
2022/07/31 04:30:53;;;;;;;10.07;2.25;;;19.10;99.90;;;;;;4996639;28;20026;-57
2022/07/31 04:33:18;;;;;;;8.00;2.28;;;19.00;99.90;;;;;;4996512;28;20022;-58
2022/07/31 04:35:44;;;;;;;8.75;3.30;;;19.00;99.90;;;;;;4993361;28;20038;-56
2022/07/31 04:38:11;;;;;;;9.35;3.08;;;19.00;99.90;;;;;;4996715;28;20030;-57
2022/07/31 04:40:37;;;;;;;8.00;3.10;;;19.00;99.90;;;;;;4987646;28;20129;-57
2022/07/31 04:43:03;;;;;;;6.53;2.75;;;19.10;99.90;;;;;;4989718;28;20071;-57
2022/07/31 04:45:29;;;;;;;11.13;2.80;;;19.00;99.90;;;;;;5008293;28;20068;-58
2022/07/31 04:47:55;;;;;;;10.27;3.20;;;19.00;99.90;;;;;;4993056;28;20390;-58
2022/07/31 04:50:21;;;;;;;9.55;2.78;;;19.10;99.90;;;;;;4988917;28;20109;-58
2022/07/31 04:52:46;;;;;;;7.75;2.30;;;19.10;99.90;;;;;;4993684;28;20018;-59
2022/07/31 04:55:12;;;;;;;12.18;3.13;;;19.10;99.90;;;;;;4987781;28;20045;-58
2022/07/31 04:57:38;;;;;;;7.60;2.60;;;19.00;99.90;;;;;;4996000;28;20061;-58
2022/07/31 05:00:06;;;;;;;9.10;3.22;;;19.00;99.90;;;;;;4992518;28;20046;-58
2022/07/31 05:02:32;;;;;;;9.45;2.95;;;19.00;99.90;;;;;;4987785;28;20030;-58
2022/07/31 05:04:57;;;;;;;7.90;2.97;;;19.10;99.90;;;;;;4997855;28;20033;-58
2022/07/31 05:07:24;;;;;;;9.93;2.55;;;19.10;99.90;;;;;;4989129;28;20081;-58
2022/07/31 05:09:50;;;;;;;6.78;2.90;;;19.10;99.90;;;;;;4994041;28;20076;-58
2022/07/31 05:12:16;;;;;;;6.85;2.55;;;19.20;99.90;;;;;;4989787;28;20054;-58
2022/07/31 05:14:41;;;;;;;5.93;2.03;;;19.20;99.90;;;;;;4995350;28;20031;-58
2022/07/31 05:17:07;;;;;;;7.97;3.10;;;19.30;99.90;;;;;;4989120;28;20433;-59
2022/07/31 05:19:33;;;;;;;4.85;2.63;;;19.20;99.90;;;;;;4988702;28;20117;-59
2022/07/31 05:21:59;;;;;;;4.57;2.10;;;19.30;99.90;;;;;;4992245;28;20033;-58
2022/07/31 05:24:25;;;;;;;6.18;2.53;;;19.30;99.90;;;;;;4987462;28;20049;-58
2022/07/31 05:26:51;;;;;;;6.10;2.78;;;19.40;99.90;;;;;;4992520;28;20080;-58
2022/07/31 05:29:17;;;;;;;7.05;2.53;;;19.40;99.90;;;;;;4988797;28;20034;-57
2022/07/31 05:31:43;;;;;;;7.25;2.40;;;19.30;99.90;;;;;;4992181;28;20030;-58
2022/07/31 05:34:09;;;;;;;6.63;2.40;;;19.40;99.90;;;;;;4990042;28;20394;-58
2022/07/31 05:36:35;;;;;;;6.22;2.05;;;19.40;99.90;;;;;;4986806;28;20026;-57
2022/07/31 05:39:00;;;;;;;4.18;2.17;;;19.50;99.90;;;;;;4994944;28;20036;-57
2022/07/31 05:41:27;;;;;;;5.88;2.42;;;19.50;99.90;;;;;;4990504;28;20398;-58
2022/07/31 05:43:52;;;;;;;6.00;3.08;;;19.50;99.90;;;;;;4989895;28;20042;-57
2022/07/31 05:46:18;;;;;;;4.93;2.47;;;19.50;99.90;;;;;;4988460;28;20437;-57
2022/07/31 05:48:44;;;;;;;7.90;2.83;;;19.60;99.90;;;;;;4989630;28;20030;-57
2022/07/31 05:51:12;;;;;;;7.00;2.30;;;19.60;99.90;;;;;;4991210;28;20101;-57
2022/07/31 05:53:39;;;;;;;4.00;2.50;;;19.60;99.90;;;;;;4992238;28;20487;-58
2022/07/31 05:56:05;;;;;;;10.38;3.00;;;19.60;99.90;;;;;;4991011;28;20137;-57
2022/07/31 05:58:32;;;;;;;5.07;2.35;;;19.70;99.90;;;;;;4990986;28;20065;-57
2022/07/31 06:00:58;;;;;;;6.22;2.97;;;19.60;99.90;;;;;;4995857;28;20028;-57
2022/07/31 06:03:26;;;;;;;5.72;2.28;;;19.60;99.90;;;;;;4991567;28;20462;-57
2022/07/31 06:05:53;;;;;;;4.45;2.40;;;19.70;99.90;;;;;;4993891;28;20038;-57
2022/07/31 06:08:19;;;;;;;4.13;2.60;;;19.80;99.90;;;;;;4994872;28;20018;-58
2022/07/31 06:10:45;;;;;;;4.80;2.58;;;19.80;99.90;;;;;;4992408;28;20026;-57
2022/07/31 06:13:12;;;;;;;4.97;2.30;;;19.80;99.90;;;;;;4989495;28;20180;-57
2022/07/31 06:15:38;;;;;;;7.03;2.70;;;19.80;99.90;;;;;;4993923;28;20483;-57
2022/07/31 06:18:04;;;;;;;7.55;2.17;;;20.00;99.90;;;;;;4991166;28;20026;-57
2022/07/31 06:20:30;;;;;;;5.53;2.10;;;20.20;99.90;;;;;;4988812;28;20470;-57
2022/07/31 06:22:55;;;;;;;7.18;2.63;;;20.30;99.90;;;;;;4993339;28;20019;-57
2022/07/31 06:25:21;;;;;;;7.47;2.58;;;20.40;99.90;;;;;;4997375;28;20117;-57
2022/07/31 06:27:47;;;;;;;7.35;2.38;;;20.50;99.90;;;;;;5003181;28;20100;-57
2022/07/31 06:30:14;;;;;;;6.00;2.67;;;20.60;99.90;;;;;;4991314;28;20098;-57
2022/07/31 06:32:39;;;;;;;7.55;2.92;;;20.70;99.90;;;;;;4990681;28;20449;-57
2022/07/31 06:35:06;;;;;;;5.70;2.30;;;20.60;99.90;;;;;;4997384;28;20026;-57
2022/07/31 06:37:31;;;;;;;5.47;2.20;;;20.50;99.90;;;;;;4988028;28;20618;-57
2022/07/31 06:39:57;;;;;;;5.57;3.20;;;20.50;99.90;;;;;;4999371;28;20142;-58
2022/07/31 06:42:24;;;;;;;7.70;2.50;;;20.50;99.90;;;;;;5000709;28;20037;-57
2022/07/31 06:44:51;;;;;;;6.07;2.15;;;20.50;99.90;;;;;;4998654;28;20077;-58
2022/07/31 06:47:19;;;;;;;7.32;2.63;;;20.40;99.90;;;;;;4995821;28;20076;-57
2022/07/31 06:49:45;;;;;;;6.25;2.33;;;20.40;99.90;;;;;;4992897;28;20030;-58
2022/07/31 06:52:11;;;;;;;6.93;3.17;;;20.30;99.90;;;;;;4992279;28;20122;-57
2022/07/31 06:54:37;;;;;;;9.00;2.88;;;20.30;99.90;;;;;;4992506;28;20374;-57
2022/07/31 06:57:03;;;;;;;4.50;2.45;;;20.50;99.90;;;;;;4994548;28;20109;-57
2022/07/31 06:59:29;;;;;;;5.65;2.50;;;20.50;99.90;;;;;;4995592;28;20038;-57
2022/07/31 07:01:55;;;;;;;9.27;3.05;;;20.60;99.90;;;;;;4997897;28;20391;-59
2022/07/31 07:04:21;;;;;;;10.63;2.42;;;20.60;99.90;;;;;;4990940;28;20057;-57
2022/07/31 07:06:47;;;;;;;6.47;2.40;;;20.70;99.90;;;;;;5000446;28;20034;-58
2022/07/31 07:09:12;;;;;;;7.28;2.70;;;20.60;99.90;;;;;;4989474;28;20447;-57
2022/07/31 07:11:39;;;;;;;5.07;2.85;;;20.60;99.90;;;;;;4992134;28;20035;-58
2022/07/31 07:14:05;;;;;;;5.20;2.38;;;20.60;99.90;;;;;;4998989;28;20033;-57
2022/07/31 07:16:31;;;;;;;5.40;2.78;;;20.50;99.90;;;;;;4993656;28;20772;-57
2022/07/31 07:18:57;;;;;;;7.13;3.13;;;20.50;99.90;;;;;;4992180;28;20571;-57
2022/07/31 07:21:22;;;;;;;5.60;2.53;;;20.60;99.90;;;;;;5002634;28;20164;-57
2022/07/31 07:23:48;;;;;;;7.47;2.58;;;20.60;99.90;;;;;;4999656;28;20027;-57
2022/07/31 07:26:14;;;;;;;7.43;2.90;;;20.70;99.90;;;;;;5002224;28;20056;-58
2022/07/31 07:28:40;;;;;;;5.38;2.40;;;20.80;99.90;;;;;;4991827;28;20030;-57
2022/07/31 07:31:06;;;;;;;8.35;3.15;;;20.80;99.90;;;;;;4993474;28;20038;-58
2022/07/31 07:33:32;;;;;;;6.28;2.20;;;20.80;99.90;;;;;;4990819;28;20316;-57
2022/07/31 07:35:58;;;;;;;10.70;2.55;;;20.80;99.90;;;;;;4991713;28;20414;-58
2022/07/31 07:38:24;;;;;;;5.95;3.22;;;20.90;99.90;;;;;;4984335;28;20037;-58
2022/07/31 07:40:50;;;;;;;5.82;2.45;;;20.90;99.90;;;;;;4991737;28;20375;-61
2022/07/31 07:43:16;;;;;;;9.38;2.72;;;20.90;99.90;;;;;;4989843;28;20406;-59
2022/07/31 07:45:42;;;;;;;8.60;2.88;;;20.80;99.90;;;;;;4991303;28;20038;-58
2022/07/31 07:48:08;;;;;;;13.32;3.55;;;20.90;99.90;;;;;;4990767;28;20027;-59
2022/07/31 07:50:34;;;;;;;7.57;3.10;;;20.90;99.90;;;;;;5001572;28;20381;-58
2022/07/31 07:53:00;;;;;;;10.50;2.80;;;20.80;99.90;;;;;;4990123;28;20077;-57
2022/07/31 07:55:26;;;;;;;8.43;3.20;;;20.60;99.90;;;;;;4999527;28;20534;-57
2022/07/31 07:57:52;;;;;;;10.98;3.65;;;20.60;99.90;;;;;;4993092;28;20114;-57
2022/07/31 08:00:18;;;;;;;7.05;3.45;;;20.60;99.90;;;;;;4980626;28;20038;-57
2022/07/31 08:02:45;;;;;;;12.88;3.67;;;20.50;99.90;;;;;;4997568;28;20034;-58
2022/07/31 08:05:12;;;;;;;10.52;3.00;;;20.60;99.90;;;;;;4991286;28;20053;-58
2022/07/31 08:07:39;;;;;;;14.25;3.95;;;20.70;99.90;;;;;;4990429;28;20109;-58
2022/07/31 08:10:06;;;;;;;14.35;4.05;;;20.70;99.90;;;;;;4990378;28;20034;-58
2022/07/31 08:12:33;;;;;;;13.55;3.17;;;20.90;99.90;;;;;;4992007;28;20112;-57
2022/07/31 08:14:59;;;;;;;11.98;3.40;;;20.90;99.90;;;;;;4989269;28;20031;-58
2022/07/31 08:17:24;;;;;;;12.48;3.90;;;20.70;99.90;;;;;;4990888;28;20038;-58
2022/07/31 08:19:50;;;;;;;13.65;3.60;;;20.80;99.90;;;;;;4993936;28;20458;-59
2022/07/31 08:22:17;;;;;;;10.55;3.97;;;20.90;99.90;;;;;;4995837;28;20038;-58
2022/07/31 08:24:42;;;;;;;11.52;3.72;;;21.10;99.90;;;;;;4991490;28;20030;-58
2022/07/31 08:27:23;;;;;;;8.70;3.10;;;21.00;99.90;;;;;;4990429;28;20092;-58
2022/07/31 08:29:56;;;;;;;9.55;3.28;;;21.00;99.90;;;;;;4982298;28;20410;-58
2022/07/31 08:32:23;;;;;;;8.18;3.90;;;21.30;99.90;;;;;;4987996;28;20076;-58
2022/07/31 08:34:49;;;;;;;9.40;3.03;;;21.10;99.90;;;;;;4989959;28;20080;-58
2022/07/31 08:37:18;;;;;;;10.77;3.45;;;21.20;99.90;;;;;;4990688;28;20066;-56
2022/07/31 08:39:45;;;;;;;10.77;3.17;;;21.10;99.90;;;;;;4992124;28;20046;-58
2022/07/31 08:42:10;;;;;;;7.70;2.83;;;21.30;99.90;;;;;;4997076;28;20038;-59
2022/07/31 08:44:37;;;;;;;8.32;2.70;;;21.40;99.90;;;;;;4988704;28;20442;-58
2022/07/31 08:47:07;;;;;;;6.18;2.92;;;21.50;99.90;;;;;;4994583;28;20033;-59
2022/07/31 08:49:39;;;;;;;6.10;2.45;;;21.70;99.90;;;;;;4989433;28;20030;-58
2022/07/31 08:52:10;;;;;;;10.45;3.38;;;21.90;99.90;;;;;;4994598;28;20042;-57
2022/07/31 08:54:45;;;;;;;11.80;2.70;;;21.90;99.90;;;;;;4987208;28;20038;-58
2022/07/31 08:57:11;;;;;;;9.30;2.45;;;22.30;99.90;;;;;;4995527;28;20022;-59
2022/07/31 08:59:39;;;;;;;6.40;2.25;;;22.60;99.90;;;;;;4989811;28;20136;-56
2022/07/31 09:02:06;;;;;;;4.53;2.20;;;23.00;99.90;;;;;;4994037;28;20566;-60
2022/07/31 09:04:31;;;;;;;7.85;3.17;;;22.60;99.90;;;;;;4987948;28;20121;-57
2022/07/31 09:06:59;;;;;;;8.50;2.28;;;22.50;99.90;;;;;;4988402;28;20125;-58
2022/07/31 09:09:28;;;;;;;5.18;2.33;;;22.50;99.90;;;;;;4993371;28;20399;-57
2022/07/31 09:11:54;;;;;;;7.70;2.20;;;22.50;99.90;;;;;;4994930;28;20080;-58
2022/07/31 09:14:27;;;;;;;8.02;2.33;;;22.30;99.90;;;;;;4992331;28;20027;-57
2022/07/31 09:16:53;;;;;;;7.60;2.42;;;22.30;99.90;;;;;;4988878;28;20494;-57
2022/07/31 09:19:21;;;;;;;9.70;1.92;;;22.20;99.90;;;;;;4988931;28;20133;-57
2022/07/31 09:21:47;;;;;;;6.93;1.90;;;22.00;99.90;;;;;;4989668;28;20470;-58
2022/07/31 09:24:28;;;;;;;5.78;1.63;;;21.70;99.90;;;;;;4987494;28;20023;-57
2022/07/31 09:27:06;;;;;;;5.25;1.85;;;21.70;99.90;;;;;;4993475;28;20037;-58
2022/07/31 09:29:41;;;;;;;10.95;1.95;;;22.00;99.90;;;;;;4989308;28;20400;-59
2022/07/31 09:32:18;;;;;;;7.60;2.72;;;21.90;99.90;;;;;;4988596;28;20031;-58
2022/07/31 09:34:45;;;;;;;6.30;2.33;;;21.70;99.90;;;;;;4981391;28;20508;-58
2022/07/31 09:37:13;;;;;;;10.35;2.78;;;21.40;99.90;;;;;;4992237;28;20034;-58
2022/07/31 09:39:40;;;;;;;8.43;2.38;;;21.30;99.90;;;;;;4987776;28;20066;-58
2022/07/31 09:42:07;;;;;;;9.13;2.63;;;21.00;99.90;;;;;;4985751;28;20031;-58
2022/07/31 09:44:41;;;;;;;6.18;2.70;;;20.90;99.90;;;;;;4988847;28;20051;-58
2022/07/31 09:47:18;;;;;;;10.68;2.80;;;20.80;99.90;;;;;;4986339;28;20057;-57
2022/07/31 09:49:58;;;;;;;14.93;3.05;;;20.80;99.90;;;;;;4989175;28;20022;-57
2022/07/31 09:52:25;;;;;;;14.95;2.70;;;20.70;99.90;;;;;;4986998;28;20029;-58
2022/07/31 09:55:01;;;;;;;15.18;3.85;;;20.80;99.90;;;;;;4990793;28;20038;-57
2022/07/31 09:57:27;;;;;;;11.65;3.30;;;20.80;99.90;;;;;;4997063;28;20069;-57
2022/07/31 09:59:53;;;;;;;6.22;2.85;;;20.90;99.90;;;;;;5001193;28;20035;-57
2022/07/31 10:02:19;;;;;;;8.98;3.05;;;20.90;99.90;;;;;;4999451;28;20054;-58
2022/07/31 10:04:47;;;;;;;9.68;3.03;;;20.90;99.90;;;;;;4992923;28;20039;-57
2022/07/31 10:07:15;;;;;;;9.65;3.35;;;21.10;99.90;;;;;;5002926;28;20034;-58
2022/07/31 10:09:42;;;;;;;8.00;2.75;;;21.10;99.90;;;;;;4994946;28;20033;-58
2022/07/31 10:12:13;;;;;;;7.63;2.28;;;21.20;99.90;;;;;;4995098;28;20506;-58
2022/07/31 10:14:42;;;;;;;10.80;2.58;;;21.10;99.90;;;;;;4996774;28;20058;-60
2022/07/31 10:17:09;;;;;;;9.88;2.92;;;21.20;99.90;;;;;;4994891;28;20394;-58
2022/07/31 10:19:37;;;;;;;7.88;2.63;;;21.40;99.90;;;;;;5002476;28;20038;-58
2022/07/31 10:22:04;;;;;;;8.00;2.38;;;21.80;99.90;;;;;;4997349;28;20022;-58
2022/07/31 10:24:38;;;;;;;11.23;2.92;;;21.80;99.90;;;;;;4995471;28;20045;-58
2022/07/31 10:27:04;;;;;;;9.05;2.78;;;21.80;99.90;;;;;;4997500;28;20041;-58
2022/07/31 10:29:30;;;;;;;14.10;3.53;;;21.90;99.90;;;;;;4992337;28;20386;-58
2022/07/31 10:31:56;;;;;;;8.43;2.83;;;21.80;99.90;;;;;;4995676;28;20117;-58
2022/07/31 10:34:22;;;;;;;16.20;3.88;;;22.20;99.90;;;;;;4998621;28;20031;-58
2022/07/31 10:36:53;;;;;;;7.18;2.20;;;21.90;99.90;;;;;;4995675;28;20026;-58
2022/07/31 10:39:23;;;;;;;14.63;3.55;;;21.80;99.90;;;;;;5000506;28;20103;-58
2022/07/31 10:42:12;;;;;;;10.70;2.60;;;21.70;99.90;;;;;;4996790;28;20066;-58
2022/07/31 10:44:40;;;;;;;10.13;3.03;;;21.70;99.90;;;;;;5000068;28;20074;-58
2022/07/31 10:47:15;;;;;;;10.02;3.10;;;21.60;99.90;;;;;;4997749;28;20035;-58
2022/07/31 10:49:44;;;;;;;11.80;2.70;;;21.40;99.90;;;;;;4998641;28;20031;-58
2022/07/31 10:52:10;;;;;;;16.40;2.95;;;21.30;99.90;;;;;;4990308;28;20027;-57
2022/07/31 10:54:44;;;;;;;10.68;2.95;;;21.20;99.90;;;;;;4989566;28;20029;-58
2022/07/31 10:57:33;;;;;;;10.10;3.00;;;21.40;99.90;;;;;;4995279;28;20037;-58
2022/07/31 11:00:16;;;;;;;9.82;3.00;;;21.30;99.90;;;;;;4992643;28;20100;-58
2022/07/31 11:02:42;;;;;;;10.77;3.60;;;21.40;99.90;;;;;;5003858;28;20050;-58
2022/07/31 11:05:14;;;;;;;11.57;3.03;;;21.40;99.90;;;;;;5003982;28;20073;-58
2022/07/31 11:07:44;;;;;;;7.28;3.20;;;21.50;99.90;;;;;;4987176;28;20025;-58
2022/07/31 11:10:20;;;;;;;9.00;2.95;;;21.30;99.90;;;;;;4997167;28;20077;-58
2022/07/31 11:13:03;;;;;;;8.15;2.75;;;21.20;99.90;;;;;;5000834;28;20018;-57
2022/07/31 11:15:29;;;;;;;12.80;3.78;;;21.20;99.90;;;;;;4985827;28;20060;-59
2022/07/31 11:17:55;;;;;;;15.13;3.65;;;21.10;99.90;;;;;;4994297;28;20034;-57
2022/07/31 11:20:29;;;;;;;12.95;3.03;;;21.10;99.90;;;;;;5004499;28;20520;-57
2022/07/31 11:23:02;;;;;;;10.63;3.15;;;21.10;99.90;;;;;;4997373;28;20109;-58
2022/07/31 11:25:30;;;;;;;13.38;3.30;;;21.20;99.90;;;;;;4997606;28;20038;-58
2022/07/31 11:28:23;;;;;;;6.38;2.97;;;21.20;99.90;;;;;;5003862;28;20025;-57
2022/07/31 11:30:57;;;;;;;13.70;3.78;;;21.20;99.90;;;;;;4996088;28;20038;-58
2022/07/31 11:33:39;;;;;;;9.15;3.35;;;21.20;99.90;;;;;;4999455;28;20084;-59
2022/07/31 11:36:08;;;;;;;11.80;3.15;;;21.30;99.90;;;;;;5003080;28;20036;-58
2022/07/31 11:38:35;;;;;;;10.52;3.10;;;21.40;99.90;;;;;;5001502;28;20156;-57
2022/07/31 11:41:01;;;;;;;6.30;3.10;;;21.50;99.90;;;;;;4998621;28;20037;-58
2022/07/31 11:43:27;;;;;;;10.52;2.70;;;21.60;99.90;;;;;;4991530;28;20445;-58
2022/07/31 11:45:53;;;;;;;9.70;3.10;;;21.80;99.90;;;;;;5001641;28;20088;-57
2022/07/31 11:48:21;;;;;;;9.70;2.90;;;21.80;99.90;;;;;;5000053;28;20503;-57
2022/07/31 11:50:48;;;;;;;12.07;2.90;;;21.70;99.90;;;;;;4991679;28;20030;-59
2022/07/31 11:53:14;;;;;;;19.27;3.72;;;21.70;99.90;;;;;;5000218;28;20392;-59
2022/07/31 11:55:45;;;;;;;6.00;2.53;;;21.70;99.90;;;;;;4992890;28;20013;-61
2022/07/31 11:58:11;;;;;;;8.75;2.80;;;21.60;99.90;;;;;;4991745;28;20073;-58
2022/07/31 12:00:37;;;;;;;9.93;3.35;;;21.50;99.90;;;;;;4991295;28;20608;-57
2022/07/31 12:03:02;;;;;;;13.00;4.00;;;21.60;99.90;;;;;;5004295;28;20037;-58
2022/07/31 12:05:28;;;;;;;11.50;3.50;;;21.70;99.90;;;;;;4997981;28;20030;-58
2022/07/31 12:07:54;;;;;;;16.60;3.03;;;21.80;99.90;;;;;;4990751;28;20498;-58
2022/07/31 12:10:21;;;;;;;14.60;3.13;;;21.60;99.90;;;;;;4999217;28;20057;-58
2022/07/31 12:12:47;;;;;;;10.25;2.90;;;21.50;99.90;;;;;;5000823;28;20026;-58
2022/07/31 12:15:19;;;;;;;8.68;2.70;;;21.60;99.90;;;;;;4995620;28;20040;-58
2022/07/31 12:17:46;;;;;;;14.68;3.60;;;21.60;99.90;;;;;;4991141;28;20037;-59
2022/07/31 12:20:12;;;;;;;10.32;2.90;;;21.70;99.90;;;;;;4998052;28;20050;-58
2022/07/31 12:22:38;;;;;;;7.00;2.63;;;21.90;99.90;;;;;;4993736;28;20022;-58
2022/07/31 12:25:08;;;;;;;11.25;3.08;;;22.10;99.90;;;;;;4990867;28;20049;-59
2022/07/31 12:27:34;;;;;;;11.20;3.20;;;22.10;99.90;;;;;;4994013;28;20517;-58
2022/07/31 12:30:11;;;;;;;11.07;3.00;;;22.30;99.90;;;;;;5002516;28;20113;-58
2022/07/31 12:32:37;;;;;;;6.20;2.47;;;22.80;99.90;;;;;;4999636;28;20058;-58
2022/07/31 12:35:03;;;;;;;11.77;3.30;;;23.10;99.90;;;;;;4996201;28;20057;-58
2022/07/31 12:37:29;;;;;;;14.68;3.22;;;23.50;99.90;;;;;;5000300;28;20072;-58
2022/07/31 12:39:56;;;;;;;9.80;3.22;;;23.80;99.90;;;;;;4996573;28;20078;-58
2022/07/31 12:42:22;;;;;;;8.70;2.65;;;23.70;99.90;;;;;;5003706;28;20478;-57
2022/07/31 12:44:49;;;;;;;10.23;2.50;;;24.00;99.90;;;;;;5007334;28;20045;-58